createdAt,value
2023-10-20T00:00:42.286Z,9.07
2023-10-20T00:03:09.989Z,8.83
2023-10-20T00:05:37.074Z,8.53
2023-10-20T00:08:03.953Z,8.47
2023-10-20T00:10:38.181Z,8.93
2023-10-20T00:13:05.987Z,9.30
2023-10-20T00:15:34.348Z,8.77
2023-10-20T00:18:00.882Z,8.97
2023-10-20T00:20:27.309Z,9.17
2023-10-20T00:22:53.674Z,9.23
2023-10-20T00:25:20.317Z,9.53
2023-10-20T00:27:46.697Z,9.27
2023-10-20T00:30:13.252Z,8.73
2023-10-20T00:32:42.899Z,11.17
2023-10-20T00:35:11.056Z,9.40
2023-10-20T00:37:37.692Z,9.30
2023-10-20T00:40:12.319Z,8.60
2023-10-20T00:42:39.528Z,9.47
2023-10-20T00:45:07.608Z,10.27
2023-10-20T00:47:34.673Z,11.60
2023-10-20T00:50:01.312Z,9.43
2023-10-20T00:52:30.515Z,9.13
2023-10-20T00:54:58.270Z,9.03
2023-10-20T00:57:25.024Z,10.90
2023-10-20T00:59:51.436Z,9.67
2023-10-20T01:02:17.986Z,9.30
2023-10-20T01:04:44.656Z,8.67
2023-10-20T01:07:11.928Z,9.30
2023-10-20T01:09:38.474Z,8.70
2023-10-20T01:12:05.600Z,8.63
2023-10-20T01:14:32.320Z,8.67
2023-10-20T01:16:59.051Z,7.70
2023-10-20T01:19:25.595Z,8.37
2023-10-20T01:21:51.934Z,8.57
2023-10-20T01:24:18.467Z,7.43
2023-10-20T01:26:45.193Z,7.80
2023-10-20T01:29:13.429Z,7.47
2023-10-20T01:31:40.256Z,7.10
2023-10-20T01:34:06.868Z,7.53
2023-10-20T01:36:33.386Z,9.53
2023-10-20T01:39:00.689Z,7.33
2023-10-20T01:41:27.538Z,6.20
2023-10-20T01:43:54.103Z,5.77
2023-10-20T01:46:20.559Z,5.30
2023-10-20T01:48:47.013Z,5.43
2023-10-20T01:51:13.339Z,5.03
2023-10-20T01:53:39.714Z,4.77
2023-10-20T01:56:06.237Z,4.30
2023-10-20T01:58:33.182Z,5.70
2023-10-20T02:00:59.657Z,4.50
2023-10-20T02:03:26.237Z,3.90
2023-10-20T02:05:52.904Z,3.83
2023-10-20T02:08:19.552Z,3.67
2023-10-20T02:10:46.377Z,3.60
2023-10-20T02:13:12.941Z,3.60
2023-10-20T02:15:40.035Z,5.13
2023-10-20T02:18:07.862Z,3.23
2023-10-20T02:20:34.579Z,3.03
2023-10-20T02:23:01.018Z,3.23
2023-10-20T02:25:27.393Z,4.13
2023-10-20T02:27:53.802Z,5.13
2023-10-20T02:30:20.324Z,2.93
2023-10-20T02:32:46.781Z,4.57
2023-10-20T02:35:13.925Z,3.37
2023-10-20T02:37:40.383Z,2.70
2023-10-20T02:40:07.469Z,2.30
2023-10-20T02:42:34.200Z,2.83
2023-10-20T02:45:00.854Z,2.80
2023-10-20T02:47:27.475Z,4.30
2023-10-20T02:49:57.545Z,2.30
2023-10-20T02:52:24.452Z,2.33
2023-10-20T02:54:54.529Z,2.37
2023-10-20T02:57:22.121Z,2.90
2023-10-20T02:59:49.401Z,1.80
2023-10-20T03:02:21.442Z,2.30
2023-10-20T03:04:48.154Z,2.10
2023-10-20T03:07:14.580Z,2.60
2023-10-20T03:09:40.966Z,2.33
2023-10-20T03:12:07.501Z,4.93
2023-10-20T03:14:34.988Z,2.10
2023-10-20T03:17:01.918Z,2.33
2023-10-20T03:19:28.594Z,2.43
2023-10-20T03:21:55.305Z,2.63
2023-10-20T03:24:21.680Z,2.43
2023-10-20T03:26:49.384Z,3.43
2023-10-20T03:29:15.974Z,2.30
2023-10-20T03:31:43.209Z,2.93
2023-10-20T03:34:09.666Z,3.40
2023-10-20T03:36:36.011Z,2.43
2023-10-20T03:39:02.852Z,2.80
2023-10-20T03:41:30.482Z,3.47
2023-10-20T03:43:56.944Z,4.43
2023-10-20T03:46:23.486Z,2.73
2023-10-20T03:48:50.024Z,2.80
2023-10-20T03:51:18.080Z,2.60
2023-10-20T03:53:48.277Z,3.40
2023-10-20T03:56:16.187Z,7.47
2023-10-20T03:58:43.501Z,3.17
2023-10-20T04:01:10.393Z,3.10
2023-10-20T04:03:36.979Z,2.80
2023-10-20T04:06:08.998Z,2.90
2023-10-20T04:08:35.923Z,3.10
2023-10-20T04:11:02.605Z,3.23
2023-10-20T04:13:30.472Z,3.53
2023-10-20T04:15:57.179Z,2.80
2023-10-20T04:18:24.117Z,2.90
2023-10-20T04:20:51.201Z,2.63
2023-10-20T04:23:18.504Z,2.80
2023-10-20T04:25:54.647Z,3.43
2023-10-20T04:28:29.267Z,3.20
2023-10-20T04:31:14.387Z,3.03
2023-10-20T04:33:59.689Z,3.23
2023-10-20T04:36:44.725Z,3.10
2023-10-20T04:39:29.494Z,2.90
2023-10-20T04:42:14.394Z,3.10
2023-10-20T04:44:49.718Z,3.10
2023-10-20T04:47:25.863Z,2.77
2023-10-20T04:49:56.211Z,2.97
2023-10-20T04:52:40.824Z,2.63
2023-10-20T04:55:13.551Z,2.83
2023-10-20T04:57:45.869Z,2.90
2023-10-20T05:00:13.701Z,3.93
2023-10-20T05:02:58.183Z,2.60
2023-10-20T05:05:35.531Z,2.63
2023-10-20T05:08:06.702Z,2.73
2023-10-20T05:10:33.805Z,2.63
2023-10-20T05:13:00.927Z,2.50
2023-10-20T05:15:27.507Z,2.10
2023-10-20T05:17:54.515Z,2.10
2023-10-20T05:20:21.425Z,3.37
2023-10-20T05:22:48.499Z,2.40
2023-10-20T05:25:15.378Z,2.53
2023-10-20T05:27:42.122Z,4.00
2023-10-20T05:30:10.357Z,2.67
2023-10-20T05:32:38.897Z,3.10
2023-10-20T05:35:08.415Z,3.57
2023-10-20T05:37:35.366Z,2.53
2023-10-20T05:40:02.833Z,2.60
2023-10-20T05:42:29.460Z,2.33
2023-10-20T05:45:10.964Z,4.17
2023-10-20T05:47:39.236Z,2.70
2023-10-20T05:50:07.415Z,2.60
2023-10-20T05:52:36.797Z,2.63
2023-10-20T05:55:04.498Z,7.63
2023-10-20T05:57:31.372Z,2.87
2023-10-20T06:00:00.595Z,3.60
2023-10-20T06:02:28.813Z,2.73
2023-10-20T06:04:55.535Z,3.83
2023-10-20T06:07:22.046Z,5.30
2023-10-20T06:09:50.399Z,3.47
2023-10-20T06:12:16.930Z,4.37
2023-10-20T06:14:43.630Z,4.27
2023-10-20T06:17:10.235Z,4.50
2023-10-20T06:19:36.985Z,4.37
2023-10-20T06:22:04.278Z,4.50
2023-10-20T06:24:30.704Z,4.60
2023-10-20T06:27:03.337Z,6.00
2023-10-20T06:29:33.112Z,11.23
2023-10-20T06:32:11.474Z,4.47
2023-10-20T06:34:42.232Z,5.60
2023-10-20T06:37:15.313Z,5.23
2023-10-20T06:39:42.815Z,5.40
2023-10-20T06:42:10.647Z,6.47
2023-10-20T06:44:37.467Z,5.77
2023-10-20T06:47:03.954Z,6.07
2023-10-20T06:49:30.672Z,6.30
2023-10-20T06:51:57.077Z,6.43
2023-10-20T06:54:23.426Z,6.13
2023-10-20T06:56:49.911Z,6.17
2023-10-20T06:59:16.489Z,6.67
2023-10-20T07:01:45.186Z,8.97
2023-10-20T07:04:12.258Z,7.87
2023-10-20T07:06:40.940Z,7.47
2023-10-20T07:09:14.338Z,8.73
2023-10-20T07:11:42.591Z,8.47
2023-10-20T07:14:11.169Z,7.80
2023-10-20T07:16:37.628Z,7.50
2023-10-20T07:19:04.727Z,7.50
2023-10-20T07:21:31.632Z,8.10
2023-10-20T07:23:57.990Z,7.50
2023-10-20T07:26:25.469Z,8.47
2023-10-20T07:28:52.030Z,7.67
2023-10-20T07:31:22.556Z,8.93
2023-10-20T07:33:52.549Z,7.93
2023-10-20T07:36:19.087Z,7.67
2023-10-20T07:38:45.667Z,7.70
2023-10-20T07:41:14.315Z,7.70
2023-10-20T07:43:41.783Z,7.33
2023-10-20T07:46:15.202Z,7.60
2023-10-20T07:48:41.561Z,7.37
2023-10-20T07:51:08.066Z,7.40
2023-10-20T07:53:34.603Z,7.87
2023-10-20T07:56:01.772Z,7.03
2023-10-20T07:58:29.190Z,7.40
2023-10-20T08:00:55.749Z,7.50
2023-10-20T08:03:23.880Z,6.53
2023-10-20T08:05:51.301Z,6.50
2023-10-20T08:08:18.574Z,6.73
2023-10-20T08:10:45.172Z,7.97
2023-10-20T08:13:11.531Z,6.67
2023-10-20T08:15:39.837Z,6.83
2023-10-20T08:18:09.543Z,7.17
2023-10-20T08:20:36.167Z,7.00
2023-10-20T08:23:02.725Z,7.10
2023-10-20T08:25:29.130Z,7.57
2023-10-20T08:27:55.494Z,7.37
2023-10-20T08:30:22.100Z,8.90
2023-10-20T08:32:48.672Z,9.87
2023-10-20T08:35:15.435Z,11.40
2023-10-20T08:37:41.859Z,9.93
2023-10-20T08:40:11.954Z,9.90
2023-10-20T08:42:41.852Z,8.93
2023-10-20T08:45:12.110Z,8.10
2023-10-20T08:47:41.363Z,8.83
2023-10-20T08:50:08.826Z,9.30
2023-10-20T08:52:37.645Z,7.30
2023-10-20T08:55:08.441Z,8.57
2023-10-20T08:57:34.981Z,7.70
2023-10-20T09:00:01.504Z,7.80
2023-10-20T09:02:38.662Z,7.43
2023-10-20T09:05:05.948Z,7.23
2023-10-20T09:07:32.341Z,7.43
2023-10-20T09:09:58.730Z,7.67
2023-10-20T09:12:26.939Z,7.53
2023-10-20T09:14:57.511Z,8.17
2023-10-20T09:17:24.756Z,7.67
2023-10-20T09:19:51.455Z,8.20
2023-10-20T09:22:29.621Z,8.27
2023-10-20T09:24:56.668Z,7.83
2023-10-20T09:27:23.542Z,7.97
2023-10-20T09:29:51.319Z,9.97
2023-10-20T09:32:18.225Z,9.83
2023-10-20T09:34:44.685Z,7.77
2023-10-20T09:37:13.295Z,7.40
2023-10-20T09:39:41.592Z,9.30
2023-10-20T09:42:12.426Z,8.27
2023-10-20T09:44:48.166Z,6.77
2023-10-20T09:47:23.938Z,7.63
2023-10-20T09:49:53.787Z,9.43
2023-10-20T09:52:20.287Z,6.23
2023-10-20T09:54:47.972Z,6.53
2023-10-20T09:57:16.074Z,6.50
2023-10-20T09:59:43.113Z,7.00
2023-10-20T10:02:09.912Z,6.83
2023-10-20T10:04:41.291Z,7.50
2023-10-20T10:07:09.097Z,8.57
2023-10-20T10:09:44.682Z,10.57
2023-10-20T10:12:15.337Z,9.77
2023-10-20T10:14:41.862Z,9.33
2023-10-20T10:17:10.857Z,8.63
2023-10-20T10:19:50.184Z,9.30
2023-10-20T10:22:17.157Z,8.13
2023-10-20T10:24:52.901Z,7.03
2023-10-20T10:27:20.869Z,7.20
2023-10-20T10:29:49.457Z,7.10
2023-10-20T10:32:20.912Z,6.97
2023-10-20T10:34:50.379Z,7.10
2023-10-20T10:37:30.519Z,7.00
2023-10-20T10:40:08.416Z,6.93
2023-10-20T10:42:45.145Z,7.40
2023-10-20T10:45:34.529Z,6.60
2023-10-20T10:48:06.442Z,7.10
2023-10-20T10:50:33.915Z,6.43
2023-10-20T10:53:01.004Z,7.07
2023-10-20T10:55:27.716Z,6.70
2023-10-20T10:57:54.396Z,7.47
2023-10-20T11:00:22.783Z,6.60
2023-10-20T11:02:50.013Z,7.23
2023-10-20T11:05:18.261Z,9.17
2023-10-20T11:08:03.037Z,6.57
2023-10-20T11:10:31.448Z,8.10
2023-10-20T11:12:58.815Z,6.53
2023-10-20T11:15:32.341Z,6.43
2023-10-20T11:18:02.121Z,6.10
2023-10-20T11:20:31.369Z,7.07
2023-10-20T11:22:58.888Z,6.37
2023-10-20T11:25:28.181Z,6.47
2023-10-20T11:27:57.951Z,7.83
2023-10-20T11:30:29.647Z,6.97
2023-10-20T11:32:56.744Z,6.80
2023-10-20T11:35:25.465Z,7.80
2023-10-20T11:37:52.967Z,8.27
2023-10-20T11:40:20.940Z,6.80
2023-10-20T11:42:47.871Z,6.10
2023-10-20T11:45:15.060Z,8.13
2023-10-20T11:47:42.083Z,6.10
2023-10-20T11:50:12.337Z,6.53
2023-10-20T11:52:42.880Z,6.50
2023-10-20T11:55:10.589Z,8.20
2023-10-20T11:57:37.632Z,10.97
2023-10-20T12:00:08.767Z,10.10
2023-10-20T12:02:35.745Z,7.70
2023-10-20T12:05:02.472Z,7.40
2023-10-20T12:07:29.408Z,10.80
2023-10-20T12:09:55.784Z,6.00
2023-10-20T12:12:22.384Z,6.17
2023-10-20T12:14:48.934Z,6.83
2023-10-20T12:17:16.099Z,5.27
2023-10-20T12:19:42.805Z,5.07
2023-10-20T12:22:11.723Z,5.23
2023-10-20T12:24:38.072Z,5.40
2023-10-20T12:27:04.832Z,5.93
2023-10-20T12:29:31.570Z,5.00
2023-10-20T12:32:00.063Z,5.97
2023-10-20T12:34:27.505Z,4.87
2023-10-20T12:36:54.050Z,5.50
2023-10-20T12:39:21.518Z,5.40
2023-10-20T12:41:51.176Z,5.23
2023-10-20T12:44:19.530Z,5.47
2023-10-20T12:46:46.011Z,5.17
2023-10-20T12:49:15.045Z,7.33
2023-10-20T12:51:42.642Z,4.70
2023-10-20T12:54:09.052Z,5.30
2023-10-20T12:56:35.549Z,8.47
2023-10-20T12:59:01.999Z,5.57
2023-10-20T13:01:28.585Z,5.33
2023-10-20T13:03:55.170Z,6.23
2023-10-20T13:06:21.758Z,5.87
2023-10-20T13:08:48.183Z,6.13
2023-10-20T13:11:14.686Z,5.40
2023-10-20T13:13:41.790Z,5.90
2023-10-20T13:16:09.355Z,10.83
2023-10-20T13:18:39.186Z,5.87
2023-10-20T13:21:08.715Z,5.87
2023-10-20T13:23:35.354Z,6.30
2023-10-20T13:26:07.844Z,5.53
2023-10-20T13:28:35.759Z,7.90
2023-10-20T13:31:12.381Z,6.30
2023-10-20T13:33:40.870Z,5.67
2023-10-20T13:36:11.133Z,5.73
2023-10-20T13:38:39.044Z,6.37
2023-10-20T13:41:06.684Z,6.10
2023-10-20T13:43:33.417Z,6.37
2023-10-20T13:46:00.116Z,5.90
2023-10-20T13:48:27.131Z,6.00
2023-10-20T13:50:53.721Z,6.17
2023-10-20T13:53:20.213Z,6.20
2023-10-20T13:55:47.189Z,5.77
2023-10-20T13:58:15.117Z,5.63
2023-10-20T14:00:41.978Z,6.17
2023-10-20T14:03:08.683Z,5.80
2023-10-20T14:05:35.873Z,6.00
2023-10-20T14:08:02.866Z,5.13
2023-10-20T14:10:29.321Z,6.73
2023-10-20T14:12:59.028Z,5.83
2023-10-20T14:15:25.761Z,5.00
2023-10-20T14:17:52.183Z,7.80
2023-10-20T14:20:19.019Z,6.37
2023-10-20T14:22:45.689Z,4.80
2023-10-20T14:25:12.302Z,4.70
2023-10-20T14:27:40.439Z,6.40
2023-10-20T14:30:08.141Z,2.17
2023-10-20T14:32:35.159Z,1.57
2023-10-20T14:35:01.860Z,1.67
2023-10-20T14:37:28.411Z,1.40
2023-10-20T14:39:54.973Z,2.17
2023-10-20T14:42:21.478Z,1.40
2023-10-20T14:44:49.730Z,1.90
2023-10-20T14:47:16.094Z,2.60
2023-10-20T14:49:42.714Z,1.03
2023-10-20T14:52:09.045Z,1.30
2023-10-20T14:54:35.379Z,1.47
2023-10-20T14:57:01.787Z,1.23
2023-10-20T14:59:28.279Z,3.03
2023-10-20T15:01:54.873Z,1.70
2023-10-20T15:04:29.925Z,1.60
2023-10-20T15:06:57.849Z,1.50
2023-10-20T15:09:24.875Z,1.20
2023-10-20T15:11:52.488Z,1.10
2023-10-20T15:14:19.025Z,0.97
2023-10-20T15:16:45.434Z,1.20
2023-10-20T15:19:12.045Z,1.27
2023-10-20T15:21:38.459Z,1.17
2023-10-20T15:24:05.496Z,0.93
2023-10-20T15:26:31.972Z,0.93
2023-10-20T15:28:58.746Z,1.53
2023-10-20T15:31:25.183Z,1.17
2023-10-20T15:33:51.739Z,2.00
2023-10-20T15:36:18.248Z,2.83
2023-10-20T15:38:45.577Z,1.10
2023-10-20T15:41:14.902Z,1.67
2023-10-20T15:43:41.492Z,3.97
2023-10-20T15:46:08.276Z,1.53
2023-10-20T15:48:36.221Z,1.03
2023-10-20T15:51:05.279Z,1.80
2023-10-20T15:53:31.818Z,1.57
2023-10-20T15:55:58.312Z,1.67
2023-10-20T15:58:24.761Z,1.50
2023-10-20T16:00:58.306Z,1.10
2023-10-20T16:03:25.002Z,1.13
2023-10-20T16:05:51.531Z,2.23
2023-10-20T16:08:17.933Z,4.90
2023-10-20T16:10:44.419Z,6.47
2023-10-20T16:13:10.820Z,5.23
2023-10-20T16:15:37.182Z,6.30
2023-10-20T16:18:04.075Z,5.20
2023-10-20T16:20:30.607Z,7.83
2023-10-20T16:22:57.034Z,6.07
2023-10-20T16:25:23.486Z,4.70
2023-10-20T16:27:49.942Z,3.93
2023-10-20T16:30:16.377Z,3.30
2023-10-20T16:32:42.953Z,2.33
2023-10-20T16:35:10.360Z,2.30
2023-10-20T16:37:37.194Z,1.50
2023-10-20T16:40:05.028Z,3.87
2023-10-20T16:42:31.383Z,1.80
2023-10-20T16:44:57.787Z,4.73
2023-10-20T16:47:24.332Z,1.63
2023-10-20T16:49:51.985Z,1.60
2023-10-20T16:52:18.613Z,1.90
2023-10-20T16:54:48.372Z,1.43
2023-10-20T16:57:14.725Z,2.57
2023-10-20T16:59:41.094Z,1.50
2023-10-20T17:02:07.625Z,3.70
2023-10-20T17:04:34.571Z,5.03
2023-10-20T17:07:01.012Z,3.67
2023-10-20T17:09:31.179Z,4.97
2023-10-20T17:11:57.521Z,2.90
2023-10-20T17:14:23.866Z,1.30
2023-10-20T17:16:50.332Z,1.63
2023-10-20T17:19:16.679Z,1.67
2023-10-20T17:21:43.183Z,3.20
2023-10-20T17:24:11.222Z,2.10
2023-10-20T17:26:37.788Z,2.70
2023-10-20T17:29:04.581Z,6.50
2023-10-20T17:31:31.068Z,1.50
2023-10-20T17:33:57.939Z,2.30
2023-10-20T17:36:24.315Z,2.50
2023-10-20T17:38:51.344Z,1.33
2023-10-20T17:41:17.902Z,1.77
2023-10-20T17:43:44.477Z,2.27
2023-10-20T17:46:18.150Z,2.13
2023-10-20T17:48:45.003Z,2.07
2023-10-20T17:51:11.724Z,2.60
2023-10-20T17:53:38.304Z,1.20
2023-10-20T17:56:05.728Z,1.10
2023-10-20T17:58:32.946Z,1.60
2023-10-20T18:01:11.413Z,6.23
2023-10-20T18:03:43.419Z,1.23
2023-10-20T18:06:18.495Z,1.00
2023-10-20T18:08:50.618Z,1.10
2023-10-20T18:11:18.738Z,2.30
2023-10-20T18:13:46.594Z,1.67
2023-10-20T18:16:16.236Z,1.47
2023-10-20T18:18:49.506Z,1.27
2023-10-20T18:21:19.054Z,2.00
2023-10-20T18:23:47.669Z,4.13
2023-10-20T18:26:14.845Z,1.00
2023-10-20T18:28:41.840Z,3.17
2023-10-20T18:31:15.486Z,3.57
2023-10-20T18:33:42.172Z,2.90
2023-10-20T18:36:09.443Z,1.53
2023-10-20T18:38:35.857Z,1.80
2023-10-20T18:41:06.232Z,1.27
2023-10-20T18:43:34.621Z,2.07
2023-10-20T18:46:01.524Z,1.93
2023-10-20T18:48:28.491Z,1.77
2023-10-20T18:51:07.609Z,2.57
2023-10-20T18:53:34.643Z,2.00
2023-10-20T18:56:01.919Z,5.97
2023-10-20T18:58:28.773Z,3.33
2023-10-20T19:00:55.307Z,4.87
2023-10-20T19:03:21.920Z,2.07
2023-10-20T19:05:49.522Z,1.50
2023-10-20T19:08:16.799Z,4.23
2023-10-20T19:10:43.184Z,4.77
2023-10-20T19:13:09.619Z,3.10
2023-10-20T19:15:36.057Z,5.27
2023-10-20T19:18:02.717Z,2.60
2023-10-20T19:20:29.406Z,3.57
2023-10-20T19:22:55.824Z,2.73
2023-10-20T19:25:22.274Z,2.40
2023-10-20T19:27:48.717Z,3.83
2023-10-20T19:30:15.392Z,4.57
2023-10-20T19:32:41.829Z,4.47
2023-10-20T19:35:10.109Z,2.93
2023-10-20T19:37:38.207Z,2.50
2023-10-20T19:40:05.675Z,4.30
2023-10-20T19:42:32.460Z,2.00
2023-10-20T19:44:59.593Z,2.70
2023-10-20T19:47:26.292Z,1.60
2023-10-20T19:49:52.805Z,3.60
2023-10-20T19:52:19.125Z,4.90
2023-10-20T19:54:45.582Z,1.60
2023-10-20T19:57:11.970Z,3.13
2023-10-20T19:59:38.565Z,5.40
2023-10-20T20:02:05.732Z,4.93
2023-10-20T20:04:33.930Z,2.77
2023-10-20T20:07:00.684Z,3.33
2023-10-20T20:09:27.019Z,3.37
2023-10-20T20:11:54.156Z,3.17
2023-10-20T20:14:20.574Z,3.90
2023-10-20T20:16:48.985Z,2.97
2023-10-20T20:19:16.002Z,3.57
2023-10-20T20:21:42.556Z,6.20
2023-10-20T20:24:09.516Z,1.60
2023-10-20T20:26:35.999Z,2.37
2023-10-20T20:29:04.038Z,3.23
2023-10-20T20:31:30.564Z,4.67
2023-10-20T20:33:56.976Z,2.23
2023-10-20T20:36:23.633Z,3.73
2023-10-20T20:38:50.223Z,2.13
2023-10-20T20:41:16.828Z,4.97
2023-10-20T20:43:43.847Z,4.87
2023-10-20T20:46:11.121Z,2.73
2023-10-20T20:48:37.707Z,6.90
2023-10-20T20:51:09.309Z,4.43
2023-10-20T20:53:35.816Z,4.17
2023-10-20T20:56:02.400Z,4.20
2023-10-20T20:58:28.750Z,4.50
2023-10-20T21:00:56.231Z,3.07
2023-10-20T21:03:22.896Z,2.23
2023-10-20T21:05:58.969Z,3.30
2023-10-20T21:08:26.008Z,2.90
2023-10-20T21:10:52.357Z,2.20
2023-10-20T21:13:18.842Z,3.17
2023-10-20T21:15:45.199Z,6.13
2023-10-20T21:18:11.650Z,3.63
2023-10-20T21:20:38.930Z,5.70
2023-10-20T21:23:05.317Z,2.87
2023-10-20T21:25:37.868Z,4.07
2023-10-20T21:28:04.938Z,4.93
2023-10-20T21:30:31.987Z,2.13
2023-10-20T21:32:58.405Z,5.17
2023-10-20T21:35:24.865Z,4.57
2023-10-20T21:37:51.260Z,4.27
2023-10-20T21:40:17.601Z,4.17
2023-10-20T21:42:44.078Z,3.53
2023-10-20T21:45:10.502Z,5.80
2023-10-20T21:47:36.985Z,3.33
2023-10-20T21:50:03.625Z,4.63
2023-10-20T21:52:30.012Z,3.70
2023-10-20T21:54:56.644Z,3.97
2023-10-20T21:57:23.113Z,3.00
2023-10-20T21:59:49.509Z,5.30
2023-10-20T22:02:16.516Z,4.33
2023-10-20T22:04:43.062Z,2.40
2023-10-20T22:07:09.458Z,4.33
2023-10-20T22:09:50.438Z,3.57
2023-10-20T22:12:19.882Z,1.97
2023-10-20T22:14:46.237Z,5.30
2023-10-20T22:17:12.680Z,3.63
2023-10-20T22:19:39.126Z,5.17
2023-10-20T22:22:05.500Z,2.83
2023-10-20T22:24:32.005Z,2.20
2023-10-20T22:26:58.599Z,4.13
2023-10-20T22:29:25.063Z,4.97
2023-10-20T22:31:51.806Z,3.60
2023-10-20T22:34:18.156Z,3.37
2023-10-20T22:36:44.565Z,1.67
2023-10-20T22:39:11.056Z,2.90
2023-10-20T22:41:37.546Z,6.60
2023-10-20T22:44:04.198Z,2.67
2023-10-20T22:46:30.709Z,3.13
2023-10-20T22:48:57.081Z,4.00
2023-10-20T22:51:23.462Z,2.07
2023-10-20T22:53:49.927Z,5.23
2023-10-20T22:56:16.339Z,3.13
2023-10-20T22:58:42.717Z,5.10
2023-10-20T23:01:09.188Z,5.03
2023-10-20T23:03:36.020Z,1.70
2023-10-20T23:06:02.854Z,1.60
2023-10-20T23:08:29.876Z,3.93
2023-10-20T23:10:56.865Z,2.23
2023-10-20T23:13:23.441Z,1.90
2023-10-20T23:15:49.783Z,2.00
2023-10-20T23:18:16.328Z,2.57
2023-10-20T23:20:43.461Z,4.40
2023-10-20T23:23:09.969Z,1.83
2023-10-20T23:25:36.394Z,3.40
2023-10-20T23:28:04.002Z,2.73
2023-10-20T23:30:30.436Z,2.57
2023-10-20T23:32:56.956Z,1.77
2023-10-20T23:35:25.171Z,2.40
2023-10-20T23:37:51.723Z,1.20
2023-10-20T23:40:18.553Z,2.83
2023-10-20T23:42:44.971Z,2.30
2023-10-20T23:45:11.444Z,3.50
2023-10-20T23:47:38.026Z,4.13
2023-10-20T23:50:06.570Z,2.03
2023-10-20T23:52:33.620Z,1.63
2023-10-20T23:55:00.021Z,1.40
2023-10-20T23:57:26.661Z,2.80
2023-10-20T23:59:53.102Z,2.03
